createdAt,value
2019-06-15T00:00:45.190Z,0.00
2019-06-15T00:01:45.226Z,0.00
2019-06-15T00:02:45.293Z,0.00
2019-06-15T00:03:45.298Z,0.00
2019-06-15T00:04:45.332Z,0.00
2019-06-15T00:05:45.364Z,0.00
2019-06-15T00:06:45.401Z,0.00
2019-06-15T00:07:45.439Z,0.00
2019-06-15T00:08:45.465Z,0.00
2019-06-15T00:09:45.499Z,0.00
2019-06-15T00:10:45.535Z,0.00
2019-06-15T00:11:45.572Z,0.00
2019-06-15T00:12:45.604Z,0.00
2019-06-15T00:13:45.645Z,0.00
2019-06-15T00:14:45.671Z,0.00
2019-06-15T00:15:45.709Z,0.00
2019-06-15T00:16:45.745Z,0.00
2019-06-15T00:17:45.777Z,0.00
2019-06-15T00:18:45.811Z,0.00
2019-06-15T00:19:45.842Z,0.00
2019-06-15T00:20:45.883Z,0.00
2019-06-15T00:21:45.914Z,0.00
2019-06-15T00:22:45.945Z,0.00
2019-06-15T00:23:45.981Z,0.00
2019-06-15T00:24:46.016Z,0.00
2019-06-15T00:25:46.047Z,4.00
2019-06-15T00:26:46.085Z,4.00
2019-06-15T00:27:46.123Z,4.00
2019-06-15T00:28:46.152Z,4.00
2019-06-15T00:29:46.184Z,4.00
2019-06-15T00:30:46.220Z,4.00
2019-06-15T00:31:46.253Z,0.00
2019-06-15T00:32:46.287Z,0.00
2019-06-15T00:33:46.320Z,4.00
2019-06-15T00:34:46.362Z,4.00
2019-06-15T00:35:46.390Z,4.00
2019-06-15T00:36:46.423Z,4.00
2019-06-15T00:37:46.457Z,4.00
2019-06-15T00:38:46.495Z,4.00
2019-06-15T00:39:46.529Z,4.00
2019-06-15T00:40:46.561Z,4.00
2019-06-15T00:41:46.597Z,8.00
2019-06-15T00:42:46.629Z,4.00
2019-06-15T00:43:46.664Z,8.00
2019-06-15T00:44:46.696Z,8.00
2019-06-15T00:45:46.732Z,8.00
2019-06-15T00:46:46.765Z,8.00
2019-06-15T00:47:46.799Z,12.00
2019-06-15T00:48:46.836Z,12.00
2019-06-15T00:49:46.869Z,12.00
2019-06-15T00:50:46.910Z,12.00
2019-06-15T00:51:46.937Z,16.00
2019-06-15T00:52:46.973Z,16.00
2019-06-15T00:53:47.006Z,16.00
2019-06-15T00:54:50.462Z,20.00
2019-06-15T00:55:47.075Z,20.00
2019-06-15T00:56:47.111Z,20.00
2019-06-15T00:57:47.163Z,24.00
2019-06-15T00:58:47.176Z,24.00
2019-06-15T00:59:47.211Z,24.00
2019-06-15T01:00:47.244Z,32.00
2019-06-15T01:01:47.277Z,32.00
2019-06-15T01:02:47.312Z,32.00
2019-06-15T01:03:47.351Z,40.00
2019-06-15T01:04:47.383Z,40.00
2019-06-15T01:05:47.413Z,44.00
2019-06-15T01:06:47.454Z,48.00
2019-06-15T01:07:47.488Z,52.00
2019-06-15T01:08:47.519Z,56.00
2019-06-15T01:09:47.551Z,60.00
2019-06-15T01:10:47.587Z,64.00
2019-06-15T01:11:47.621Z,68.00
2019-06-15T01:12:47.656Z,72.00
2019-06-15T01:13:47.687Z,80.00
2019-06-15T01:14:47.721Z,84.00
2019-06-15T01:15:47.764Z,88.00
2019-06-15T01:16:47.788Z,92.00
2019-06-15T01:17:47.822Z,96.00
2019-06-15T01:18:47.859Z,100.00
2019-06-15T01:19:47.895Z,108.00
2019-06-15T01:20:47.925Z,112.00
2019-06-15T01:21:47.959Z,120.00
2019-06-15T01:22:47.996Z,132.00
2019-06-15T01:23:48.027Z,140.00
2019-06-15T01:24:48.065Z,144.00
2019-06-15T01:25:48.116Z,156.00
2019-06-15T01:26:48.136Z,164.00
2019-06-15T01:27:48.164Z,176.00
2019-06-15T01:28:48.201Z,188.00
2019-06-15T01:29:48.235Z,196.00
2019-06-15T01:30:48.266Z,212.00
2019-06-15T01:31:48.301Z,228.00
2019-06-15T01:32:48.337Z,240.00
2019-06-15T01:33:48.369Z,256.00
2019-06-15T01:34:48.401Z,268.00
2019-06-15T01:35:48.436Z,284.00
2019-06-15T01:36:48.472Z,296.00
2019-06-15T01:37:48.505Z,316.00
2019-06-15T01:38:48.538Z,336.00
2019-06-15T01:39:48.571Z,352.00
2019-06-15T01:40:48.605Z,380.00
2019-06-15T01:41:48.639Z,412.00
2019-06-15T01:42:48.673Z,436.00
2019-06-15T01:43:48.708Z,456.00
2019-06-15T01:44:48.745Z,468.00
2019-06-15T01:45:48.775Z,524.00
2019-06-15T01:46:48.808Z,528.00
2019-06-15T01:47:48.843Z,516.00
2019-06-15T01:48:48.880Z,528.00
2019-06-15T01:49:48.910Z,548.00
2019-06-15T01:50:48.948Z,564.00
2019-06-15T01:51:48.992Z,596.00
2019-06-15T01:52:49.014Z,628.00
2019-06-15T01:53:49.055Z,656.00
2019-06-15T01:54:49.079Z,684.00
2019-06-15T01:55:49.160Z,712.00
2019-06-15T01:56:49.149Z,744.00
2019-06-15T01:57:49.183Z,776.00
2019-06-15T01:58:49.215Z,804.00
2019-06-15T01:59:49.255Z,816.00
2019-06-15T02:00:49.284Z,832.00
2019-06-15T02:01:49.323Z,832.00
2019-06-15T02:02:49.352Z,852.00
2019-06-15T02:03:49.388Z,904.00
2019-06-15T02:04:49.424Z,940.00
2019-06-15T02:05:49.453Z,1004.00
2019-06-15T02:06:49.492Z,1008.00
2019-06-15T02:07:49.521Z,1040.00
2019-06-15T02:08:49.554Z,1068.00
2019-06-15T02:09:49.587Z,1080.00
2019-06-15T02:10:49.623Z,1092.00
2019-06-15T02:11:49.658Z,1120.00
2019-06-15T02:12:49.689Z,1168.00
2019-06-15T02:13:49.767Z,1172.00
2019-06-15T02:14:49.759Z,1200.00
2019-06-15T02:15:49.795Z,1292.00
2019-06-15T02:16:49.829Z,1308.00
2019-06-15T02:17:49.863Z,1324.00
2019-06-15T02:18:49.895Z,1376.00
2019-06-15T02:19:49.932Z,1448.00
2019-06-15T02:20:49.974Z,1508.00
2019-06-15T02:21:50.022Z,1500.00
2019-06-15T02:22:50.032Z,1516.00
2019-06-15T02:23:50.067Z,1564.00
2019-06-15T02:24:50.104Z,1632.00
2019-06-15T02:25:50.136Z,1604.00
2019-06-15T02:26:50.175Z,1580.00
2019-06-15T02:27:50.204Z,1620.00
2019-06-15T02:28:50.237Z,1692.00
2019-06-15T02:29:50.275Z,1756.00
2019-06-15T02:30:50.313Z,1796.00
2019-06-15T02:31:50.338Z,1824.00
2019-06-15T02:32:50.377Z,1836.00
2019-06-15T02:33:50.407Z,1952.00
2019-06-15T02:34:50.443Z,2016.00
2019-06-15T02:35:50.475Z,2000.00
2019-06-15T02:36:50.512Z,2068.00
2019-06-15T02:37:50.568Z,2100.00
2019-06-15T02:38:50.586Z,2084.00
2019-06-15T02:39:50.614Z,2128.00
2019-06-15T02:40:50.646Z,2224.00
2019-06-15T02:41:50.689Z,2292.00
2019-06-15T02:42:50.716Z,2296.00
2019-06-15T02:43:50.750Z,2368.00
2019-06-15T02:44:50.787Z,2432.00
2019-06-15T02:45:50.823Z,2472.00
2019-06-15T02:46:50.860Z,2692.00
2019-06-15T02:47:50.889Z,2848.00
2019-06-15T02:48:50.925Z,2812.00
2019-06-15T02:49:50.956Z,2624.00
2019-06-15T02:50:50.990Z,2564.00
2019-06-15T02:51:51.037Z,2756.00
2019-06-15T02:52:51.073Z,2860.00
2019-06-15T02:53:51.093Z,2896.00
2019-06-15T02:54:51.130Z,3016.00
2019-06-15T02:55:51.226Z,3144.00
2019-06-15T02:56:51.195Z,3184.00
2019-06-15T02:57:51.232Z,3192.00
2019-06-15T02:58:51.267Z,3324.00
2019-06-15T02:59:51.306Z,3600.00
2019-06-15T03:00:51.333Z,3704.00
2019-06-15T03:01:51.369Z,3848.00
2019-06-15T03:02:51.404Z,3872.00
2019-06-15T03:03:51.439Z,4236.00
2019-06-15T03:04:51.471Z,4352.00
2019-06-15T03:05:51.508Z,4256.00
2019-06-15T03:06:51.554Z,4000.00
2019-06-15T03:07:51.575Z,3884.00
2019-06-15T03:08:51.612Z,4312.00
2019-06-15T03:09:51.642Z,4600.00
2019-06-15T03:10:51.679Z,4332.00
2019-06-15T03:11:51.713Z,4672.00
2019-06-15T03:12:51.751Z,4716.00
2019-06-15T03:13:51.787Z,4704.00
2019-06-15T03:14:51.821Z,4612.00
2019-06-15T03:15:51.859Z,5044.00
2019-06-15T03:16:51.886Z,5544.00
2019-06-15T03:17:51.924Z,5792.00
2019-06-15T03:18:51.958Z,5564.00
2019-06-15T03:19:51.998Z,5620.00
2019-06-15T03:20:52.029Z,5656.00
2019-06-15T03:21:52.063Z,5316.00
2019-06-15T03:22:52.097Z,5208.00
2019-06-15T03:23:52.130Z,5632.00
2019-06-15T03:24:52.167Z,5260.00
2019-06-15T03:26:04.581Z,5540.00
2019-06-15T03:26:52.237Z,5424.00
2019-06-15T03:27:52.291Z,5836.00
2019-06-15T03:28:52.306Z,5804.00
2019-06-15T03:29:52.347Z,6240.00
2019-06-15T03:30:52.377Z,6260.00
2019-06-15T03:31:52.414Z,6636.00
2019-06-15T03:32:52.446Z,6648.00
2019-06-15T03:33:52.486Z,6884.00
2019-06-15T03:34:52.521Z,6800.00
2019-06-15T03:35:52.554Z,6684.00
2019-06-15T03:36:52.770Z,6280.00
2019-06-15T03:37:52.622Z,6820.00
2019-06-15T03:38:52.657Z,6980.00
2019-06-15T03:39:52.696Z,6628.00
2019-06-15T03:40:52.727Z,6972.00
2019-06-15T03:41:52.762Z,6580.00
2019-06-15T03:42:52.796Z,7260.00
2019-06-15T03:43:52.832Z,7336.00
2019-06-15T03:44:52.867Z,6804.00
2019-06-15T03:45:52.908Z,7348.00
2019-06-15T03:46:52.942Z,6832.00
2019-06-15T03:47:52.974Z,6900.00
2019-06-15T03:48:53.010Z,7168.00
2019-06-15T03:49:53.045Z,7064.00
2019-06-15T03:50:53.079Z,7356.00
2019-06-15T03:51:53.115Z,7284.00
2019-06-15T03:52:53.152Z,7564.00
2019-06-15T03:53:53.186Z,7524.00
2019-06-15T03:54:53.235Z,7468.00
2019-06-15T03:55:53.262Z,8476.00
2019-06-15T03:56:53.298Z,8740.00
2019-06-15T03:57:53.338Z,9148.00
2019-06-15T03:58:53.364Z,9332.00
2019-06-15T03:59:53.399Z,8292.00
2019-06-15T04:00:53.437Z,8708.00
2019-06-15T04:01:53.471Z,9288.00
2019-06-15T04:02:53.509Z,9072.00
2019-06-15T04:03:53.543Z,8492.00
2019-06-15T04:04:53.578Z,8372.00
2019-06-15T04:05:53.624Z,8736.00
2019-06-15T04:06:53.657Z,8864.00
2019-06-15T04:07:53.690Z,8812.00
2019-06-15T04:08:53.724Z,9524.00
2019-06-15T04:09:53.760Z,10392.00
2019-06-15T04:10:53.802Z,11304.00
2019-06-15T04:11:53.832Z,10628.00
2019-06-15T04:12:53.868Z,10456.00
2019-06-15T04:13:53.901Z,10264.00
2019-06-15T04:14:53.937Z,10604.00
2019-06-15T04:15:53.974Z,10228.00
2019-06-15T04:16:54.011Z,10120.00
2019-06-15T04:17:54.053Z,10460.00
2019-06-15T04:18:54.083Z,10340.00
2019-06-15T04:19:54.119Z,10484.00
2019-06-15T04:20:54.155Z,10936.00
2019-06-15T04:21:54.195Z,11352.00
2019-06-15T04:22:54.226Z,11112.00
2019-06-15T04:23:54.264Z,11060.00
2019-06-15T04:24:54.308Z,11776.00
2019-06-15T04:25:54.338Z,13264.00
2019-06-15T04:26:54.373Z,12828.00
2019-06-15T04:27:54.408Z,13192.00
2019-06-15T04:28:54.458Z,12052.00
2019-06-15T04:29:54.482Z,11256.00
2019-06-15T04:30:54.518Z,11708.00
2019-06-15T04:31:54.558Z,11156.00
2019-06-15T04:32:54.594Z,11184.00
2019-06-15T04:33:54.632Z,12796.00
2019-06-15T04:34:54.663Z,12980.00
2019-06-15T04:35:54.706Z,12104.00
2019-06-15T04:36:54.742Z,13508.00
2019-06-15T04:37:54.799Z,13212.00
2019-06-15T04:38:54.811Z,12776.00
2019-06-15T04:39:54.849Z,12668.00
2019-06-15T04:40:54.887Z,11724.00
2019-06-15T04:41:54.926Z,12664.00
2019-06-15T04:42:54.962Z,11948.00
2019-06-15T04:43:55.009Z,11328.00
2019-06-15T04:44:55.031Z,12396.00
2019-06-15T04:45:55.071Z,11656.00
2019-06-15T04:46:55.113Z,11900.00
2019-06-15T04:47:55.151Z,12552.00
2019-06-15T04:48:55.179Z,12764.00
2019-06-15T04:49:55.274Z,11356.00
2019-06-15T04:50:55.256Z,12052.00
2019-06-15T04:51:55.296Z,13272.00
2019-06-15T04:52:55.333Z,12612.00
2019-06-15T04:53:55.368Z,12440.00
2019-06-15T04:54:55.404Z,12936.00
2019-06-15T04:55:55.445Z,14604.00
2019-06-15T04:56:55.480Z,16736.00
2019-06-15T04:57:55.522Z,17088.00
2019-06-15T04:58:55.555Z,18208.00
2019-06-15T04:59:55.592Z,18400.00
2019-06-15T05:00:55.632Z,14984.00
2019-06-15T05:01:55.667Z,12624.00
2019-06-15T05:02:55.705Z,13012.00
2019-06-15T05:03:55.754Z,16048.00
2019-06-15T05:04:55.781Z,14988.00
2019-06-15T05:05:56.019Z,12588.00
2019-06-15T05:06:55.858Z,11980.00
2019-06-15T05:07:55.895Z,10788.00
2019-06-15T05:08:55.933Z,11956.00
2019-06-15T05:09:55.972Z,13504.00
2019-06-15T05:10:59.650Z,13848.00
2019-06-15T05:11:56.049Z,12432.00
2019-06-15T05:12:56.085Z,11816.00
2019-06-15T05:13:56.124Z,12156.00
2019-06-15T05:14:56.164Z,13116.00
2019-06-15T05:15:56.201Z,10568.00
2019-06-15T05:16:56.238Z,11316.00
2019-06-15T05:17:56.276Z,10152.00
2019-06-15T05:18:56.316Z,13672.00
2019-06-15T05:19:56.381Z,21120.00
2019-06-15T05:20:56.389Z,15520.00
2019-06-15T05:21:56.427Z,24224.00
2019-06-15T05:22:56.467Z,23264.00
2019-06-15T05:23:56.505Z,22336.00
2019-06-15T05:24:56.594Z,18432.00
2019-06-15T05:25:56.584Z,18272.00
2019-06-15T05:27:05.960Z,19968.00
2019-06-15T05:27:56.669Z,21408.00
2019-06-15T05:28:56.699Z,22240.00
2019-06-15T05:29:56.773Z,22368.00
2019-06-15T05:30:56.783Z,26656.00
2019-06-15T05:31:56.824Z,25184.00
2019-06-15T05:32:56.862Z,23168.00
2019-06-15T05:33:56.902Z,24736.00
2019-06-15T05:34:56.947Z,23776.00
2019-06-15T05:35:56.985Z,22688.00
2019-06-15T05:36:57.022Z,19872.00
2019-06-15T05:37:57.065Z,18048.00
2019-06-15T05:38:57.110Z,18560.00
2019-06-15T05:39:57.151Z,18464.00
2019-06-15T05:40:57.190Z,18176.00
2019-06-15T05:41:57.237Z,18592.00
2019-06-15T05:42:57.275Z,18944.00
2019-06-15T05:43:57.319Z,18880.00
2019-06-15T05:44:57.361Z,19040.00
2019-06-15T05:45:57.402Z,19616.00
2019-06-15T05:46:57.449Z,19616.00
2019-06-15T05:47:57.491Z,19680.00
2019-06-15T05:48:57.534Z,20064.00
2019-06-15T05:49:57.576Z,20000.00
2019-06-15T05:50:58.685Z,19904.00
2019-06-15T05:51:57.662Z,20128.00
2019-06-15T05:52:57.706Z,20128.00
2019-06-15T05:53:57.749Z,20768.00
2019-06-15T05:54:57.804Z,20864.00
2019-06-15T05:55:57.844Z,21216.00
2019-06-15T05:56:57.882Z,21376.00
2019-06-15T05:57:57.925Z,21184.00
2019-06-15T05:58:57.981Z,21408.00
2019-06-15T05:59:58.012Z,21760.00
2019-06-15T06:00:58.060Z,22240.00
2019-06-15T06:01:58.139Z,22432.00
2019-06-15T06:02:58.147Z,22272.00
2019-06-15T06:03:58.192Z,22144.00
2019-06-15T06:04:58.238Z,22464.00
2019-06-15T06:05:58.289Z,22624.00
2019-06-15T06:06:58.329Z,22848.00
2019-06-15T06:07:58.375Z,22944.00
2019-06-15T06:08:58.426Z,23040.00
2019-06-15T06:09:58.465Z,23296.00
2019-06-15T06:10:58.513Z,23872.00
2019-06-15T06:11:58.560Z,24288.00
2019-06-15T06:12:58.602Z,24416.00
2019-06-15T06:13:58.652Z,24672.00
2019-06-15T06:14:58.697Z,25312.00
2019-06-15T06:15:58.741Z,25824.00
2019-06-15T06:16:58.788Z,25952.00
2019-06-15T06:17:58.834Z,25760.00
2019-06-15T06:18:58.878Z,25760.00
2019-06-15T06:19:58.924Z,26368.00
2019-06-15T06:20:58.974Z,26784.00
2019-06-15T06:21:59.019Z,26784.00
2019-06-15T06:22:59.067Z,27456.00
2019-06-15T06:23:59.113Z,27840.00
2019-06-15T06:24:59.162Z,28096.00
2019-06-15T06:25:59.407Z,28352.00
2019-06-15T06:26:59.258Z,28352.00
2019-06-15T06:27:59.302Z,28672.00
2019-06-15T06:28:59.346Z,28576.00
2019-06-15T06:29:59.393Z,29568.00
2019-06-15T06:30:59.442Z,30656.00
2019-06-15T06:31:59.496Z,29792.00
2019-06-15T06:32:59.535Z,29984.00
2019-06-15T06:33:59.589Z,29760.00
2019-06-15T06:34:59.633Z,30688.00
2019-06-15T06:35:59.679Z,31712.00
2019-06-15T06:36:59.727Z,31840.00
2019-06-15T06:37:59.774Z,32224.00
2019-06-15T06:38:59.835Z,32512.00
2019-06-15T06:39:59.869Z,32448.00
2019-06-15T06:40:59.922Z,32288.00
2019-06-15T06:41:59.965Z,32288.00
2019-06-15T06:43:00.014Z,32768.00
2019-06-15T06:44:00.062Z,33856.00
2019-06-15T06:45:00.127Z,34272.00
2019-06-15T06:46:00.162Z,34496.00
2019-06-15T06:47:00.208Z,34848.00
2019-06-15T06:48:00.275Z,35168.00
2019-06-15T06:49:00.303Z,34336.00
2019-06-15T06:50:00.356Z,34208.00
2019-06-15T06:51:00.407Z,35392.00
2019-06-15T06:52:00.548Z,35808.00
2019-06-15T06:53:00.498Z,35904.00
2019-06-15T06:54:00.549Z,36544.00
2019-06-15T06:55:00.596Z,35680.00
2019-06-15T06:56:00.649Z,36000.00
2019-06-15T06:57:00.729Z,37952.00
2019-06-15T06:58:00.749Z,37344.00
2019-06-15T06:59:00.795Z,36544.00
2019-06-15T07:00:00.847Z,39200.00
2019-06-15T07:01:00.919Z,38880.00
2019-06-15T07:02:00.962Z,39424.00
2019-06-15T07:03:00.994Z,38592.00
2019-06-15T07:04:01.044Z,37984.00
2019-06-15T07:05:01.093Z,38656.00
2019-06-15T07:06:01.144Z,40416.00
2019-06-15T07:07:01.194Z,40832.00
2019-06-15T07:08:01.247Z,39840.00
2019-06-15T07:09:01.294Z,40064.00
2019-06-15T07:10:01.351Z,42144.00
2019-06-15T07:11:01.398Z,41920.00
2019-06-15T07:12:01.447Z,42240.00
2019-06-15T07:13:01.530Z,42656.00
2019-06-15T07:14:01.546Z,44064.00
2019-06-15T07:15:04.643Z,43520.00
2019-06-15T07:16:01.656Z,43168.00
2019-06-15T07:17:01.702Z,42080.00
2019-06-15T07:18:01.750Z,42624.00
2019-06-15T07:19:01.817Z,42720.00
2019-06-15T07:20:01.853Z,41920.00
2019-06-15T07:21:01.904Z,44800.00
2019-06-15T07:22:01.989Z,45184.00
2019-06-15T07:23:02.024Z,44640.00
2019-06-15T07:24:02.066Z,45728.00
2019-06-15T07:25:02.255Z,45312.00
2019-06-15T07:26:02.168Z,43520.00
2019-06-15T07:27:02.214Z,43168.00
2019-06-15T07:28:08.099Z,45760.00
2019-06-15T07:29:02.317Z,47616.00
2019-06-15T07:30:02.435Z,49024.00
2019-06-15T07:31:02.420Z,47808.00
2019-06-15T07:32:02.473Z,47872.00
2019-06-15T07:33:02.527Z,49088.00
2019-06-15T07:34:02.577Z,48000.00
2019-06-15T07:35:02.627Z,49312.00
2019-06-15T07:36:02.681Z,48864.00
2019-06-15T07:37:02.731Z,48000.00
2019-06-15T07:38:02.791Z,48288.00
2019-06-15T07:39:02.838Z,50208.00
2019-06-15T07:40:02.888Z,52448.00
2019-06-15T07:41:02.938Z,51136.00
2019-06-15T07:42:02.995Z,50592.00
2019-06-15T07:43:03.044Z,50848.00
2019-06-15T07:44:03.098Z,51712.00
2019-06-15T07:45:03.151Z,52768.00
2019-06-15T07:46:03.261Z,52448.00
2019-06-15T07:47:03.256Z,50688.00
2019-06-15T07:48:03.326Z,53440.00
2019-06-15T07:49:05.015Z,54560.00
2019-06-15T07:50:03.412Z,51392.00
2019-06-15T07:51:03.469Z,51904.00
2019-06-15T07:52:03.550Z,57152.00
2019-06-15T07:53:03.568Z,56064.00
2019-06-15T07:54:03.623Z,51360.00
2019-06-15T07:55:03.676Z,52576.00
2019-06-15T07:56:03.730Z,55488.00
2019-06-15T07:57:03.782Z,55168.00
2019-06-15T07:58:03.838Z,56544.00
2019-06-15T07:59:03.889Z,57536.00
2019-06-15T08:00:03.953Z,59008.00
2019-06-15T08:01:03.999Z,59360.00
2019-06-15T08:02:04.052Z,59808.00
2019-06-15T08:03:04.106Z,58304.00
2019-06-15T08:04:04.163Z,59840.00
2019-06-15T08:05:04.212Z,62144.00
2019-06-15T08:06:04.271Z,61824.00
2019-06-15T08:07:04.323Z,59456.00
2019-06-15T08:08:04.381Z,60640.00
2019-06-15T08:09:04.433Z,58848.00
2019-06-15T08:10:04.486Z,61856.00
2019-06-15T08:11:04.540Z,60896.00
2019-06-15T08:12:04.595Z,61440.00
2019-06-15T08:13:04.653Z,61792.00
2019-06-15T08:14:04.705Z,63008.00
2019-06-15T08:15:04.782Z,63968.00
2019-06-15T08:16:04.820Z,64640.00
2019-06-15T08:17:04.872Z,64672.00
2019-06-15T08:18:04.930Z,63712.00
2019-06-15T08:19:04.984Z,62496.00
2019-06-15T08:20:05.042Z,66752.00
2019-06-15T08:21:05.093Z,66688.00
2019-06-15T08:22:05.150Z,67104.00
2019-06-15T08:23:05.202Z,62272.00
2019-06-15T08:24:05.260Z,67968.00
2019-06-15T08:25:05.312Z,67648.00
2019-06-15T08:26:05.371Z,67264.00
2019-06-15T08:27:05.427Z,70272.00
2019-06-15T08:28:05.484Z,71584.00
2019-06-15T08:29:05.535Z,66272.00
2019-06-15T08:30:05.587Z,71264.00
2019-06-15T08:31:05.643Z,73408.00
2019-06-15T08:32:05.701Z,74080.00
2019-06-15T08:33:05.884Z,73344.00
2019-06-15T08:34:05.807Z,74848.00
2019-06-15T08:35:05.860Z,74368.00
2019-06-15T08:36:05.914Z,75744.00
2019-06-15T08:37:05.971Z,76864.00
2019-06-15T08:38:06.030Z,69888.00
2019-06-15T08:39:06.078Z,75296.00
2019-06-15T08:40:06.137Z,66464.00
2019-06-15T08:41:06.189Z,66016.00
2019-06-15T08:42:06.246Z,50336.00
2019-06-15T08:43:06.297Z,73312.00
2019-06-15T08:44:06.355Z,72128.00
2019-06-15T08:45:06.408Z,29344.00
2019-06-15T08:46:06.461Z,19264.00
2019-06-15T08:47:06.517Z,26272.00
2019-06-15T08:48:06.573Z,70720.00
2019-06-15T08:49:06.626Z,61408.00
2019-06-15T08:50:06.675Z,42592.00
2019-06-15T08:51:06.733Z,45024.00
2019-06-15T08:52:06.792Z,42976.00
2019-06-15T08:53:06.834Z,58208.00
2019-06-15T08:54:06.885Z,57568.00
2019-06-15T08:55:06.937Z,20896.00
2019-06-15T08:56:06.996Z,16764.00
2019-06-15T08:57:07.039Z,16288.00
2019-06-15T08:58:07.091Z,17824.00
2019-06-15T08:59:07.142Z,32800.00
2019-06-15T09:00:07.219Z,50336.00
2019-06-15T09:01:07.240Z,44512.00
2019-06-15T09:02:07.297Z,46496.00
2019-06-15T09:03:07.344Z,43104.00
2019-06-15T09:04:07.405Z,41696.00
2019-06-15T09:05:07.436Z,41952.00
2019-06-15T09:06:07.488Z,49600.00
2019-06-15T09:07:07.537Z,73792.00
2019-06-15T09:08:07.593Z,71008.00
2019-06-15T09:09:07.645Z,64992.00
2019-06-15T09:10:07.687Z,67424.00
2019-06-15T09:11:07.736Z,66720.00
2019-06-15T09:12:07.785Z,69824.00
2019-06-15T09:13:07.836Z,73728.00
2019-06-15T09:14:07.886Z,68032.00
2019-06-15T09:15:07.937Z,49248.00
2019-06-15T09:16:07.987Z,60416.00
2019-06-15T09:17:08.036Z,55616.00
2019-06-15T09:18:08.120Z,76000.00
2019-06-15T09:19:08.138Z,54368.00
2019-06-15T09:20:08.201Z,57696.00
2019-06-15T09:21:08.239Z,52000.00
2019-06-15T09:22:08.297Z,61632.00
2019-06-15T09:23:08.345Z,66240.00
2019-06-15T09:24:08.395Z,67392.00
2019-06-15T09:25:08.443Z,68512.00
2019-06-15T09:26:08.499Z,55872.00
2019-06-15T09:27:08.567Z,52640.00
2019-06-15T09:28:08.597Z,58048.00
2019-06-15T09:29:11.627Z,52704.00
2019-06-15T09:30:08.698Z,67744.00
2019-06-15T09:31:08.792Z,77440.00
2019-06-15T09:32:08.802Z,73920.00
2019-06-15T09:33:08.851Z,92640.00
2019-06-15T09:34:18.474Z,87712.00
2019-06-15T09:35:08.958Z,87584.00
2019-06-15T09:36:09.024Z,85408.00
2019-06-15T09:37:09.058Z,84288.00
2019-06-15T09:38:09.113Z,73312.00
2019-06-15T09:39:09.203Z,66592.00
2019-06-15T09:40:09.218Z,55520.00
2019-06-15T09:41:09.267Z,72768.00
2019-06-15T09:42:09.342Z,78496.00
2019-06-15T09:43:09.377Z,62112.00
2019-06-15T09:44:09.429Z,55424.00
2019-06-15T09:45:09.481Z,58272.00
2019-06-15T09:46:09.532Z,74624.00
2019-06-15T09:47:09.585Z,52576.00
2019-06-15T09:48:09.649Z,60704.00
2019-06-15T09:49:09.689Z,46624.00
2019-06-15T09:50:09.744Z,39232.00
2019-06-15T09:51:09.797Z,63680.00
2019-06-15T09:52:09.854Z,59360.00
2019-06-15T09:53:09.900Z,48544.00
2019-06-15T09:54:09.955Z,75200.00
2019-06-15T09:55:10.010Z,58496.00
2019-06-15T09:56:10.058Z,37696.00
2019-06-15T09:57:10.116Z,48608.00
2019-06-15T09:58:10.163Z,51616.00
2019-06-15T09:59:22.843Z,64800.00
2019-06-15T10:00:10.267Z,79456.00
2019-06-15T10:01:10.321Z,46592.00
2019-06-15T10:02:10.371Z,56384.00
2019-06-15T10:03:10.426Z,49696.00
2019-06-15T10:04:10.478Z,47776.00
2019-06-15T10:05:10.530Z,51328.00
2019-06-15T10:06:11.814Z,65728.00
2019-06-15T10:07:10.633Z,80448.00
2019-06-15T10:08:10.699Z,69856.00
2019-06-15T10:09:10.736Z,79040.00
2019-06-15T10:10:10.815Z,85664.00
2019-06-15T10:11:10.840Z,86752.00
2019-06-15T10:12:10.894Z,87456.00
2019-06-15T10:13:10.945Z,89024.00
2019-06-15T10:14:10.998Z,89056.00
2019-06-15T10:15:11.051Z,87424.00
2019-06-15T10:16:11.106Z,75744.00
2019-06-15T10:17:11.189Z,88704.00
2019-06-15T10:18:11.210Z,72160.00
2019-06-15T10:19:11.304Z,75936.00
2019-06-15T10:20:11.321Z,82656.00
2019-06-15T10:21:11.371Z,82848.00
2019-06-15T10:22:11.426Z,71552.00
2019-06-15T10:23:11.478Z,53088.00
2019-06-15T10:24:11.531Z,49376.00
2019-06-15T10:25:11.584Z,70048.00
2019-06-15T10:26:11.649Z,56960.00
2019-06-15T10:27:11.694Z,83776.00
2019-06-15T10:28:11.744Z,73312.00
2019-06-15T10:29:11.801Z,83520.00
2019-06-15T10:30:11.850Z,79040.00
2019-06-15T10:31:11.901Z,82208.00
2019-06-15T10:32:11.979Z,61536.00
2019-06-15T10:33:12.009Z,65888.00
2019-06-15T10:34:12.064Z,69056.00
2019-06-15T10:35:12.119Z,79200.00
2019-06-15T10:36:12.187Z,91296.00
2019-06-15T10:37:12.218Z,85440.00
2019-06-15T10:38:12.272Z,93824.00
2019-06-15T10:39:12.325Z,89696.00
2019-06-15T10:40:12.377Z,52416.00
2019-06-15T10:41:12.428Z,45088.00
2019-06-15T10:42:12.489Z,34912.00
2019-06-15T10:43:12.534Z,50240.00
2019-06-15T10:44:12.587Z,68480.00
2019-06-15T10:45:12.645Z,66368.00
2019-06-15T10:46:12.706Z,75712.00
2019-06-15T10:47:12.747Z,73824.00
2019-06-15T10:48:12.801Z,86176.00
2019-06-15T10:49:12.850Z,84672.00
2019-06-15T10:50:12.906Z,65888.00
2019-06-15T10:51:12.956Z,86368.00
2019-06-15T10:52:13.008Z,83328.00
2019-06-15T10:53:13.057Z,77664.00
2019-06-15T10:54:13.113Z,73280.00
2019-06-15T10:55:13.166Z,66752.00
2019-06-15T10:56:13.217Z,58208.00
2019-06-15T10:57:13.270Z,57984.00
2019-06-15T10:58:13.321Z,52128.00
2019-06-15T10:59:13.374Z,54112.00
2019-06-15T11:00:13.427Z,67456.00
2019-06-15T11:01:13.478Z,57632.00
2019-06-15T11:02:13.534Z,55008.00
2019-06-15T11:03:13.587Z,66560.00
2019-06-15T11:04:13.638Z,79552.00
2019-06-15T11:05:13.691Z,86240.00
2019-06-15T11:06:13.741Z,86272.00
2019-06-15T11:07:13.794Z,87808.00
2019-06-15T11:08:13.852Z,90880.00
2019-06-15T11:09:13.899Z,93792.00
2019-06-15T11:10:13.952Z,89440.00
2019-06-15T11:11:14.006Z,85536.00
2019-06-15T11:12:14.062Z,72448.00
2019-06-15T11:13:14.114Z,63840.00
2019-06-15T11:14:14.165Z,47968.00
2019-06-15T11:15:14.225Z,48192.00
2019-06-15T11:16:14.275Z,44000.00
2019-06-15T11:17:14.322Z,60288.00
2019-06-15T11:18:14.376Z,85888.00
2019-06-15T11:19:14.429Z,94624.00
2019-06-15T11:20:14.481Z,95328.00
2019-06-15T11:21:14.532Z,65472.00
2019-06-15T11:22:14.585Z,53760.00
2019-06-15T11:23:14.637Z,41376.00
2019-06-15T11:24:14.691Z,57280.00
2019-06-15T11:25:14.745Z,66368.00
2019-06-15T11:26:14.791Z,58336.00
2019-06-15T11:27:14.847Z,41056.00
2019-06-15T11:28:14.899Z,80288.00
2019-06-15T11:29:14.946Z,91456.00
2019-06-15T11:30:15.005Z,88032.00
2019-06-15T11:31:15.052Z,95680.00
2019-06-15T11:32:15.099Z,90656.00
2019-06-15T11:33:15.164Z,83136.00
2019-06-15T11:34:15.213Z,100960.00
2019-06-15T11:35:15.306Z,93056.00
2019-06-15T11:36:15.308Z,73280.00
2019-06-15T11:37:15.359Z,78656.00
2019-06-15T11:38:15.413Z,62944.00
2019-06-15T11:39:15.461Z,48064.00
2019-06-15T11:40:15.536Z,33152.00
2019-06-15T11:41:15.566Z,44800.00
2019-06-15T11:42:15.618Z,56096.00
2019-06-15T11:43:15.670Z,51616.00
2019-06-15T11:44:15.727Z,37088.00
2019-06-15T11:45:15.771Z,32416.00
2019-06-15T11:46:15.826Z,26656.00
2019-06-15T11:47:15.875Z,25568.00
2019-06-15T11:48:15.942Z,25056.00
2019-06-15T11:49:15.979Z,25248.00
2019-06-15T11:50:16.030Z,26272.00
2019-06-15T11:51:16.084Z,28352.00
2019-06-15T11:52:16.126Z,33120.00
2019-06-15T11:53:16.175Z,42784.00
2019-06-15T11:54:16.250Z,48992.00
2019-06-15T11:55:16.282Z,54272.00
2019-06-15T11:56:16.324Z,42304.00
2019-06-15T11:57:16.372Z,34688.00
2019-06-15T11:58:16.434Z,35776.00
2019-06-15T11:59:16.469Z,29952.00
2019-06-15T12:00:30.375Z,44800.00